sensor_id;sensor_type;location;lat;lon;timestamp;temperature;humidity
2042;DHT22;1026;51.460;7.252;2023-07-31T00:00:14;19.10;91.60
2042;DHT22;1026;51.460;7.252;2023-07-31T00:02:47;19.00;91.40
2042;DHT22;1026;51.460;7.252;2023-07-31T00:05:15;19.00;91.90
2042;DHT22;1026;51.460;7.252;2023-07-31T00:07:42;19.00;91.50
2042;DHT22;1026;51.460;7.252;2023-07-31T00:10:16;19.00;91.70
2042;DHT22;1026;51.460;7.252;2023-07-31T00:12:55;19.00;91.60
2042;DHT22;1026;51.460;7.252;2023-07-31T00:15:22;19.00;91.70
2042;DHT22;1026;51.460;7.252;2023-07-31T00:17:55;19.00;91.70
2042;DHT22;1026;51.460;7.252;2023-07-31T00:20:23;19.00;91.70
2042;DHT22;1026;51.460;7.252;2023-07-31T00:22:56;18.90;91.70
2042;DHT22;1026;51.460;7.252;2023-07-31T00:25:29;19.00;91.70
2042;DHT22;1026;51.460;7.252;2023-07-31T00:27:57;18.90;91.70
2042;DHT22;1026;51.460;7.252;2023-07-31T00:30:24;18.90;91.80
2042;DHT22;1026;51.460;7.252;2023-07-31T00:32:58;18.90;91.80
2042;DHT22;1026;51.460;7.252;2023-07-31T00:35:25;18.80;91.80
2042;DHT22;1026;51.460;7.252;2023-07-31T00:37:52;18.80;91.80
2042;DHT22;1026;51.460;7.252;2023-07-31T00:40:26;18.80;92.00
2042;DHT22;1026;51.460;7.252;2023-07-31T00:42:53;18.80;91.90
2042;DHT22;1026;51.460;7.252;2023-07-31T00:45:21;18.80;91.80
2042;DHT22;1026;51.460;7.252;2023-07-31T00:47:56;18.80;91.90
2042;DHT22;1026;51.460;7.252;2023-07-31T00:50:24;18.80;92.00
2042;DHT22;1026;51.460;7.252;2023-07-31T00:52:52;18.80;91.90
2042;DHT22;1026;51.460;7.252;2023-07-31T00:55:26;18.80;92.00
2042;DHT22;1026;51.460;7.252;2023-07-31T00:57:53;18.80;92.00
2042;DHT22;1026;51.460;7.252;2023-07-31T01:00:29;18.80;92.00
2042;DHT22;1026;51.460;7.252;2023-07-31T01:02:55;18.70;92.00
2042;DHT22;1026;51.460;7.252;2023-07-31T01:05:47;18.70;92.30
2042;DHT22;1026;51.460;7.252;2023-07-31T01:08:42;18.70;92.10
2042;DHT22;1026;51.460;7.252;2023-07-31T01:11:25;18.70;92.00
2042;DHT22;1026;51.460;7.252;2023-07-31T01:13:53;18.70;92.10
2042;DHT22;1026;51.460;7.252;2023-07-31T01:16:27;18.70;92.10
2042;DHT22;1026;51.460;7.252;2023-07-31T01:19:00;18.70;92.20
2042;DHT22;1026;51.460;7.252;2023-07-31T01:21:58;18.70;92.20
2042;DHT22;1026;51.460;7.252;2023-07-31T01:25:11;18.60;92.20
2042;DHT22;1026;51.460;7.252;2023-07-31T01:28:05;18.60;92.20
2042;DHT22;1026;51.460;7.252;2023-07-31T01:30:34;18.60;92.20
2042;DHT22;1026;51.460;7.252;2023-07-31T01:33:10;18.60;92.20
2042;DHT22;1026;51.460;7.252;2023-07-31T01:35:38;18.60;92.30
2042;DHT22;1026;51.460;7.252;2023-07-31T01:38:12;18.60;92.20
2042;DHT22;1026;51.460;7.252;2023-07-31T01:40:41;18.60;92.30
2042;DHT22;1026;51.460;7.252;2023-07-31T01:43:15;18.60;92.30
2042;DHT22;1026;51.460;7.252;2023-07-31T01:45:41;18.50;92.30
2042;DHT22;1026;51.460;7.252;2023-07-31T01:48:15;18.60;92.40
2042;DHT22;1026;51.460;7.252;2023-07-31T01:50:42;18.50;92.30
2042;DHT22;1026;51.460;7.252;2023-07-31T01:53:16;18.50;92.30
2042;DHT22;1026;51.460;7.252;2023-07-31T01:55:43;18.50;92.30
2042;DHT22;1026;51.460;7.252;2023-07-31T01:58:17;18.50;92.40
2042;DHT22;1026;51.460;7.252;2023-07-31T02:00:43;18.50;92.30
2042;DHT22;1026;51.460;7.252;2023-07-31T02:03:10;18.50;92.40
2042;DHT22;1026;51.460;7.252;2023-07-31T02:05:45;18.50;92.30
2042;DHT22;1026;51.460;7.252;2023-07-31T02:08:12;18.50;92.40
2042;DHT22;1026;51.460;7.252;2023-07-31T02:10:46;18.50;92.50
2042;DHT22;1026;51.460;7.252;2023-07-31T02:13:25;18.40;92.50
2042;DHT22;1026;51.460;7.252;2023-07-31T02:15:59;18.50;92.50
2042;DHT22;1026;51.460;7.252;2023-07-31T02:18:26;18.40;92.40
2042;DHT22;1026;51.460;7.252;2023-07-31T02:20:53;18.40;92.40
2042;DHT22;1026;51.460;7.252;2023-07-31T02:23:27;18.40;92.50
2042;DHT22;1026;51.460;7.252;2023-07-31T02:26:01;18.40;92.50
2042;DHT22;1026;51.460;7.252;2023-07-31T02:28:29;18.40;92.50
2042;DHT22;1026;51.460;7.252;2023-07-31T02:31:03;18.40;92.50
2042;DHT22;1026;51.460;7.252;2023-07-31T02:33:30;18.40;92.50
2042;DHT22;1026;51.460;7.252;2023-07-31T02:35:57;18.30;92.50
2042;DHT22;1026;51.460;7.252;2023-07-31T02:38:31;18.40;92.50
2042;DHT22;1026;51.460;7.252;2023-07-31T02:40:57;18.40;92.60
2042;DHT22;1026;51.460;7.252;2023-07-31T02:43:24;18.30;92.50
2042;DHT22;1026;51.460;7.252;2023-07-31T02:45:59;18.30;92.50
2042;DHT22;1026;51.460;7.252;2023-07-31T02:48:33;18.30;92.60
2042;DHT22;1026;51.460;7.252;2023-07-31T02:51:00;18.30;92.50
2042;DHT22;1026;51.460;7.252;2023-07-31T02:53:26;18.30;92.60
2042;DHT22;1026;51.460;7.252;2023-07-31T02:56:00;18.30;92.60
2042;DHT22;1026;51.460;7.252;2023-07-31T02:58:27;18.30;92.60
2042;DHT22;1026;51.460;7.252;2023-07-31T03:01:00;18.30;92.60
2042;DHT22;1026;51.460;7.252;2023-07-31T03:03:33;18.20;92.60
2042;DHT22;1026;51.460;7.252;2023-07-31T03:06:07;18.30;92.60
2042;DHT22;1026;51.460;7.252;2023-07-31T03:08:40;18.30;92.60
2042;DHT22;1026;51.460;7.252;2023-07-31T03:11:26;18.20;92.60
2042;DHT22;1026;51.460;7.252;2023-07-31T03:13:53;18.30;92.70
2042;DHT22;1026;51.460;7.252;2023-07-31T03:16:27;18.20;92.60
2042;DHT22;1026;51.460;7.252;2023-07-31T03:18:54;18.20;92.60
2042;DHT22;1026;51.460;7.252;2023-07-31T03:21:21;18.20;92.60
2042;DHT22;1026;51.460;7.252;2023-07-31T03:23:55;18.20;92.60
2042;DHT22;1026;51.460;7.252;2023-07-31T03:26:22;18.20;92.60
2042;DHT22;1026;51.460;7.252;2023-07-31T03:28:49;18.20;92.60
2042;DHT22;1026;51.460;7.252;2023-07-31T03:31:23;18.20;92.60
2042;DHT22;1026;51.460;7.252;2023-07-31T03:33:50;18.20;92.70
2042;DHT22;1026;51.460;7.252;2023-07-31T03:36:17;18.20;92.60
2042;DHT22;1026;51.460;7.252;2023-07-31T03:38:52;18.10;92.60
2042;DHT22;1026;51.460;7.252;2023-07-31T03:41:18;18.10;92.60
2042;DHT22;1026;51.460;7.252;2023-07-31T03:43:49;18.20;92.70
2042;DHT22;1026;51.460;7.252;2023-07-31T03:46:24;18.10;92.70
2042;DHT22;1026;51.460;7.252;2023-07-31T03:48:58;18.10;92.70
2042;DHT22;1026;51.460;7.252;2023-07-31T03:51:32;18.10;92.70
2042;DHT22;1026;51.460;7.252;2023-07-31T03:53:59;18.10;92.70
2042;DHT22;1026;51.460;7.252;2023-07-31T03:56:26;18.10;92.70
2042;DHT22;1026;51.460;7.252;2023-07-31T03:59:02;18.10;92.70
2042;DHT22;1026;51.460;7.252;2023-07-31T04:01:29;18.10;92.80
2042;DHT22;1026;51.460;7.252;2023-07-31T04:04:03;18.10;92.70
2042;DHT22;1026;51.460;7.252;2023-07-31T04:06:30;18.00;92.80
2042;DHT22;1026;51.460;7.252;2023-07-31T04:09:03;18.10;92.70
2042;DHT22;1026;51.460;7.252;2023-07-31T04:11:43;18.10;92.70
2042;DHT22;1026;51.460;7.252;2023-07-31T04:14:18;18.10;92.80
2042;DHT22;1026;51.460;7.252;2023-07-31T04:16:45;18.10;92.80
2042;DHT22;1026;51.460;7.252;2023-07-31T04:19:12;18.00;92.80
2042;DHT22;1026;51.460;7.252;2023-07-31T04:21:49;18.00;92.80
2042;DHT22;1026;51.460;7.252;2023-07-31T04:24:22;18.00;92.80
2042;DHT22;1026;51.460;7.252;2023-07-31T04:26:52;18.00;92.70
2042;DHT22;1026;51.460;7.252;2023-07-31T04:29:19;18.00;92.80
2042;DHT22;1026;51.460;7.252;2023-07-31T04:31:53;18.00;92.80
2042;DHT22;1026;51.460;7.252;2023-07-31T04:34:20;18.00;92.80
2042;DHT22;1026;51.460;7.252;2023-07-31T04:36:46;18.00;92.80
2042;DHT22;1026;51.460;7.252;2023-07-31T04:39:20;18.00;92.80
2042;DHT22;1026;51.460;7.252;2023-07-31T04:41:46;18.00;92.90
2042;DHT22;1026;51.460;7.252;2023-07-31T04:44:14;18.00;92.80
2042;DHT22;1026;51.460;7.252;2023-07-31T04:46:47;18.00;92.80
2042;DHT22;1026;51.460;7.252;2023-07-31T04:49:14;18.00;92.90
2042;DHT22;1026;51.460;7.252;2023-07-31T04:51:48;18.00;92.80
2042;DHT22;1026;51.460;7.252;2023-07-31T04:54:15;18.00;92.90
2042;DHT22;1026;51.460;7.252;2023-07-31T04:56:42;18.00;92.90
2042;DHT22;1026;51.460;7.252;2023-07-31T04:59:16;18.00;92.80
2042;DHT22;1026;51.460;7.252;2023-07-31T05:01:43;18.00;92.90
2042;DHT22;1026;51.460;7.252;2023-07-31T05:04:15;17.90;92.80
2042;DHT22;1026;51.460;7.252;2023-07-31T05:06:49;17.90;92.80
2042;DHT22;1026;51.460;7.252;2023-07-31T05:09:16;17.90;93.20
2042;DHT22;1026;51.460;7.252;2023-07-31T05:12:05;17.90;92.90
2042;DHT22;1026;51.460;7.252;2023-07-31T05:14:32;17.90;92.90
2042;DHT22;1026;51.460;7.252;2023-07-31T05:17:06;17.90;92.90
2042;DHT22;1026;51.460;7.252;2023-07-31T05:19:33;17.90;92.90
2042;DHT22;1026;51.460;7.252;2023-07-31T05:22:06;17.90;92.90
2042;DHT22;1026;51.460;7.252;2023-07-31T05:24:33;17.90;92.90
2042;DHT22;1026;51.460;7.252;2023-07-31T05:27:00;17.90;92.90
2042;DHT22;1026;51.460;7.252;2023-07-31T05:29:33;17.90;92.90
2042;DHT22;1026;51.460;7.252;2023-07-31T05:32:07;17.90;92.90
2042;DHT22;1026;51.460;7.252;2023-07-31T05:34:34;17.90;92.90
2042;DHT22;1026;51.460;7.252;2023-07-31T05:37:01;17.90;92.90
2042;DHT22;1026;51.460;7.252;2023-07-31T05:39:34;17.90;92.90
2042;DHT22;1026;51.460;7.252;2023-07-31T05:42:08;17.90;92.90
2042;DHT22;1026;51.460;7.252;2023-07-31T05:44:35;17.90;92.90
2042;DHT22;1026;51.460;7.252;2023-07-31T05:47:08;17.90;92.90
2042;DHT22;1026;51.460;7.252;2023-07-31T05:49:42;17.90;92.90
2042;DHT22;1026;51.460;7.252;2023-07-31T05:52:09;17.90;92.90
2042;DHT22;1026;51.460;7.252;2023-07-31T05:54:36;17.90;92.90
2042;DHT22;1026;51.460;7.252;2023-07-31T05:57:10;17.90;93.00
2042;DHT22;1026;51.460;7.252;2023-07-31T05:59:44;17.90;93.00
2042;DHT22;1026;51.460;7.252;2023-07-31T06:02:18;17.90;92.90
2042;DHT22;1026;51.460;7.252;2023-07-31T06:04:45;17.90;93.00
2042;DHT22;1026;51.460;7.252;2023-07-31T06:07:13;17.90;93.00
2042;DHT22;1026;51.460;7.252;2023-07-31T06:09:46;17.90;93.00
2042;DHT22;1026;51.460;7.252;2023-07-31T06:12:20;17.90;93.00
2042;DHT22;1026;51.460;7.252;2023-07-31T06:14:54;17.80;93.00
2042;DHT22;1026;51.460;7.252;2023-07-31T06:17:21;17.80;93.00
2042;DHT22;1026;51.460;7.252;2023-07-31T06:19:56;17.90;93.00
2042;DHT22;1026;51.460;7.252;2023-07-31T06:22:23;17.80;93.00
2042;DHT22;1026;51.460;7.252;2023-07-31T06:24:50;17.90;93.00
2042;DHT22;1026;51.460;7.252;2023-07-31T06:27:34;17.90;93.00
2042;DHT22;1026;51.460;7.252;2023-07-31T06:30:07;17.80;93.00
2042;DHT22;1026;51.460;7.252;2023-07-31T06:32:35;17.90;93.10
2042;DHT22;1026;51.460;7.252;2023-07-31T06:35:09;17.80;93.00
2042;DHT22;1026;51.460;7.252;2023-07-31T06:37:36;17.90;93.00
2042;DHT22;1026;51.460;7.252;2023-07-31T06:40:13;17.90;93.10
2042;DHT22;1026;51.460;7.252;2023-07-31T06:42:40;17.80;93.00
2042;DHT22;1026;51.460;7.252;2023-07-31T06:45:08;17.90;93.10
2042;DHT22;1026;51.460;7.252;2023-07-31T06:47:42;17.80;93.00
2042;DHT22;1026;51.460;7.252;2023-07-31T06:50:23;17.80;93.00
2042;DHT22;1026;51.460;7.252;2023-07-31T06:52:57;17.90;93.10
2042;DHT22;1026;51.460;7.252;2023-07-31T06:55:25;17.80;93.10
2042;DHT22;1026;51.460;7.252;2023-07-31T06:57:58;17.80;93.10
2042;DHT22;1026;51.460;7.252;2023-07-31T07:00:32;17.80;93.10
2042;DHT22;1026;51.460;7.252;2023-07-31T07:02:59;17.80;93.10
2042;DHT22;1026;51.460;7.252;2023-07-31T07:05:33;17.80;93.10
2042;DHT22;1026;51.460;7.252;2023-07-31T07:08:00;17.80;93.10
2042;DHT22;1026;51.460;7.252;2023-07-31T07:10:34;17.80;93.10
2042;DHT22;1026;51.460;7.252;2023-07-31T07:13:14;17.80;93.10
2042;DHT22;1026;51.460;7.252;2023-07-31T07:15:50;17.90;93.20
2042;DHT22;1026;51.460;7.252;2023-07-31T07:18:18;17.80;93.20
2042;DHT22;1026;51.460;7.252;2023-07-31T07:20:52;17.80;93.10
2042;DHT22;1026;51.460;7.252;2023-07-31T07:23:26;17.80;93.10
2042;DHT22;1026;51.460;7.252;2023-07-31T07:25:53;17.80;93.20
2042;DHT22;1026;51.460;7.252;2023-07-31T07:28:26;17.80;93.20
2042;DHT22;1026;51.460;7.252;2023-07-31T07:31:01;17.80;93.20
2042;DHT22;1026;51.460;7.252;2023-07-31T07:33:35;17.80;93.20
2042;DHT22;1026;51.460;7.252;2023-07-31T07:36:02;17.80;93.20
2042;DHT22;1026;51.460;7.252;2023-07-31T07:38:36;17.80;93.20
2042;DHT22;1026;51.460;7.252;2023-07-31T07:41:05;17.80;93.30
2042;DHT22;1026;51.460;7.252;2023-07-31T07:43:32;17.80;93.20
2042;DHT22;1026;51.460;7.252;2023-07-31T07:46:05;17.80;93.30
2042;DHT22;1026;51.460;7.252;2023-07-31T07:48:39;17.80;93.30
2042;DHT22;1026;51.460;7.252;2023-07-31T07:51:06;17.80;93.30
2042;DHT22;1026;51.460;7.252;2023-07-31T07:53:40;17.80;93.40
2042;DHT22;1026;51.460;7.252;2023-07-31T07:56:07;17.80;93.30
2042;DHT22;1026;51.460;7.252;2023-07-31T07:58:41;17.80;93.30
2042;DHT22;1026;51.460;7.252;2023-07-31T08:01:08;17.80;93.30
2042;DHT22;1026;51.460;7.252;2023-07-31T08:03:42;17.80;93.30
2042;DHT22;1026;51.460;7.252;2023-07-31T08:06:10;17.80;93.40
2042;DHT22;1026;51.460;7.252;2023-07-31T08:08:37;17.80;93.40
2042;DHT22;1026;51.460;7.252;2023-07-31T08:11:11;17.80;93.40
2042;DHT22;1026;51.460;7.252;2023-07-31T08:13:51;17.90;93.40
2042;DHT22;1026;51.460;7.252;2023-07-31T08:16:24;17.80;93.40
2042;DHT22;1026;51.460;7.252;2023-07-31T08:18:51;17.80;93.40
2042;DHT22;1026;51.460;7.252;2023-07-31T08:21:18;17.80;93.40
2042;DHT22;1026;51.460;7.252;2023-07-31T08:23:51;17.80;93.40
2042;DHT22;1026;51.460;7.252;2023-07-31T08:26:25;17.80;93.40
2042;DHT22;1026;51.460;7.252;2023-07-31T08:28:52;17.80;93.50
2042;DHT22;1026;51.460;7.252;2023-07-31T08:31:19;17.80;93.50
2042;DHT22;1026;51.460;7.252;2023-07-31T08:33:53;17.80;93.50
2042;DHT22;1026;51.460;7.252;2023-07-31T08:36:20;17.80;93.50
2042;DHT22;1026;51.460;7.252;2023-07-31T08:38:47;17.80;93.50
2042;DHT22;1026;51.460;7.252;2023-07-31T08:41:20;17.80;93.50
2042;DHT22;1026;51.460;7.252;2023-07-31T08:43:48;17.80;93.50
2042;DHT22;1026;51.460;7.252;2023-07-31T08:46:16;17.90;93.50
2042;DHT22;1026;51.460;7.252;2023-07-31T08:48:50;17.90;93.50
2042;DHT22;1026;51.460;7.252;2023-07-31T08:51:17;17.90;93.60
2042;DHT22;1026;51.460;7.252;2023-07-31T08:53:53;17.90;93.50
2042;DHT22;1026;51.460;7.252;2023-07-31T08:56:20;17.90;94.00
2042;DHT22;1026;51.460;7.252;2023-07-31T08:58:54;17.80;93.50
2042;DHT22;1026;51.460;7.252;2023-07-31T09:01:22;17.90;93.60
2042;DHT22;1026;51.460;7.252;2023-07-31T09:03:59;17.90;93.60
2042;DHT22;1026;51.460;7.252;2023-07-31T09:06:28;17.90;93.60
2042;DHT22;1026;51.460;7.252;2023-07-31T09:09:04;17.90;93.60
2042;DHT22;1026;51.460;7.252;2023-07-31T09:11:45;17.90;93.60
2042;DHT22;1026;51.460;7.252;2023-07-31T09:14:18;17.90;93.50
2042;DHT22;1026;51.460;7.252;2023-07-31T09:16:57;17.90;93.50
2042;DHT22;1026;51.460;7.252;2023-07-31T09:19:35;17.90;93.50
2042;DHT22;1026;51.460;7.252;2023-07-31T09:22:06;17.90;93.50
2042;DHT22;1026;51.460;7.252;2023-07-31T09:24:46;17.90;93.60
2042;DHT22;1026;51.460;7.252;2023-07-31T09:27:13;17.90;93.50
2042;DHT22;1026;51.460;7.252;2023-07-31T09:29:58;17.90;93.50
2042;DHT22;1026;51.460;7.252;2023-07-31T09:32:26;17.90;93.50
2042;DHT22;1026;51.460;7.252;2023-07-31T09:34:59;18.00;93.50
2042;DHT22;1026;51.460;7.252;2023-07-31T09:37:29;18.00;93.50
2042;DHT22;1026;51.460;7.252;2023-07-31T09:40:04;17.90;93.60
2042;DHT22;1026;51.460;7.252;2023-07-31T09:42:31;17.90;93.50
2042;DHT22;1026;51.460;7.252;2023-07-31T09:45:09;17.90;93.50
2042;DHT22;1026;51.460;7.252;2023-07-31T09:47:50;17.90;93.40
2042;DHT22;1026;51.460;7.252;2023-07-31T09:50:19;17.90;93.50
2042;DHT22;1026;51.460;7.252;2023-07-31T09:52:53;18.00;93.40
2042;DHT22;1026;51.460;7.252;2023-07-31T09:55:20;18.00;93.30
2042;DHT22;1026;51.460;7.252;2023-07-31T09:57:56;18.00;93.30
2042;DHT22;1026;51.460;7.252;2023-07-31T10:00:23;18.00;93.30
2042;DHT22;1026;51.460;7.252;2023-07-31T10:03:04;18.00;93.40
2042;DHT22;1026;51.460;7.252;2023-07-31T10:05:53;18.00;93.40
2042;DHT22;1026;51.460;7.252;2023-07-31T10:08:30;18.00;93.40
2042;DHT22;1026;51.460;7.252;2023-07-31T10:11:13;18.00;93.50
2042;DHT22;1026;51.460;7.252;2023-07-31T10:13:46;18.00;93.40
2042;DHT22;1026;51.460;7.252;2023-07-31T10:16:20;18.00;93.50
2042;DHT22;1026;51.460;7.252;2023-07-31T10:18:49;18.00;93.40
2042;DHT22;1026;51.460;7.252;2023-07-31T10:21:18;18.00;93.40
2042;DHT22;1026;51.460;7.252;2023-07-31T10:23:52;18.10;93.50
2042;DHT22;1026;51.460;7.252;2023-07-31T10:26:26;18.10;93.40
2042;DHT22;1026;51.460;7.252;2023-07-31T10:28:53;18.10;93.40
2042;DHT22;1026;51.460;7.252;2023-07-31T10:31:28;18.10;93.40
2042;DHT22;1026;51.460;7.252;2023-07-31T10:34:02;18.10;93.50
2042;DHT22;1026;51.460;7.252;2023-07-31T10:36:36;18.10;93.50
2042;DHT22;1026;51.460;7.252;2023-07-31T10:39:04;18.10;93.40
2042;DHT22;1026;51.460;7.252;2023-07-31T10:41:57;18.10;93.40
2042;DHT22;1026;51.460;7.252;2023-07-31T10:44:30;18.10;93.40
2042;DHT22;1026;51.460;7.252;2023-07-31T10:46:57;18.10;93.50
2042;DHT22;1026;51.460;7.252;2023-07-31T10:49:33;18.10;93.30
2042;DHT22;1026;51.460;7.252;2023-07-31T10:52:03;18.10;93.30
2042;DHT22;1026;51.460;7.252;2023-07-31T10:54:31;18.10;93.30
2042;DHT22;1026;51.460;7.252;2023-07-31T10:57:19;18.20;93.50
2042;DHT22;1026;51.460;7.252;2023-07-31T10:59:47;18.10;93.40
2042;DHT22;1026;51.460;7.252;2023-07-31T11:02:25;18.20;93.40
2042;DHT22;1026;51.460;7.252;2023-07-31T11:05:09;18.20;93.30
2042;DHT22;1026;51.460;7.252;2023-07-31T11:07:49;18.20;93.30
2042;DHT22;1026;51.460;7.252;2023-07-31T11:10:17;18.20;93.40
2042;DHT22;1026;51.460;7.252;2023-07-31T11:13:05;18.20;93.40
2042;DHT22;1026;51.460;7.252;2023-07-31T11:15:32;18.20;93.40
2042;DHT22;1026;51.460;7.252;2023-07-31T11:18:05;18.20;93.40
2042;DHT22;1026;51.460;7.252;2023-07-31T11:20:40;18.20;93.40
2042;DHT22;1026;51.460;7.252;2023-07-31T11:23:09;18.20;93.40
2042;DHT22;1026;51.460;7.252;2023-07-31T11:25:39;18.20;93.40
2042;DHT22;1026;51.460;7.252;2023-07-31T11:28:20;18.20;93.50
2042;DHT22;1026;51.460;7.252;2023-07-31T11:30:47;18.20;93.40
2042;DHT22;1026;51.460;7.252;2023-07-31T11:33:21;18.20;93.80
2042;DHT22;1026;51.460;7.252;2023-07-31T11:35:49;18.20;93.40
2042;DHT22;1026;51.460;7.252;2023-07-31T11:38:30;18.20;93.40
2042;DHT22;1026;51.460;7.252;2023-07-31T11:41:04;18.20;93.40
2042;DHT22;1026;51.460;7.252;2023-07-31T11:43:31;18.20;93.50
2042;DHT22;1026;51.460;7.252;2023-07-31T11:46:05;18.30;93.50
2042;DHT22;1026;51.460;7.252;2023-07-31T11:48:36;18.20;93.50
2042;DHT22;1026;51.460;7.252;2023-07-31T11:51:12;18.20;93.60
2042;DHT22;1026;51.460;7.252;2023-07-31T11:53:47;18.30;93.70
2042;DHT22;1026;51.460;7.252;2023-07-31T11:56:24;18.30;93.60
2042;DHT22;1026;51.460;7.252;2023-07-31T11:58:59;18.30;93.70
2042;DHT22;1026;51.460;7.252;2023-07-31T12:01:27;18.20;93.60
2042;DHT22;1026;51.460;7.252;2023-07-31T12:04:01;18.30;93.70
2042;DHT22;1026;51.460;7.252;2023-07-31T12:06:36;18.20;93.40
2042;DHT22;1026;51.460;7.252;2023-07-31T12:09:16;18.30;93.90
2042;DHT22;1026;51.460;7.252;2023-07-31T12:11:56;18.30;94.20
2042;DHT22;1026;51.460;7.252;2023-07-31T12:14:29;18.30;93.70
2042;DHT22;1026;51.460;7.252;2023-07-31T12:17:03;18.30;93.70
2042;DHT22;1026;51.460;7.252;2023-07-31T12:19:36;18.30;93.80
2042;DHT22;1026;51.460;7.252;2023-07-31T12:22:15;18.30;93.70
2042;DHT22;1026;51.460;7.252;2023-07-31T12:24:48;18.30;93.60
2042;DHT22;1026;51.460;7.252;2023-07-31T12:27:21;18.30;93.70
2042;DHT22;1026;51.460;7.252;2023-07-31T12:29:51;18.30;93.60
2042;DHT22;1026;51.460;7.252;2023-07-31T12:32:25;18.30;93.60
2042;DHT22;1026;51.460;7.252;2023-07-31T12:34:58;18.30;93.70
2042;DHT22;1026;51.460;7.252;2023-07-31T12:37:33;18.30;93.50
2042;DHT22;1026;51.460;7.252;2023-07-31T12:40:00;18.30;93.40
2042;DHT22;1026;51.460;7.252;2023-07-31T12:42:34;18.30;93.50
2042;DHT22;1026;51.460;7.252;2023-07-31T12:45:08;18.30;94.30
2042;DHT22;1026;51.460;7.252;2023-07-31T12:47:41;18.30;93.70
2042;DHT22;1026;51.460;7.252;2023-07-31T12:50:14;18.40;93.70
2042;DHT22;1026;51.460;7.252;2023-07-31T12:52:41;18.40;93.80
2042;DHT22;1026;51.460;7.252;2023-07-31T12:55:08;18.40;93.70
2042;DHT22;1026;51.460;7.252;2023-07-31T12:57:43;18.40;93.80
2042;DHT22;1026;51.460;7.252;2023-07-31T13:00:11;18.40;93.80
2042;DHT22;1026;51.460;7.252;2023-07-31T13:02:39;18.40;93.60
2042;DHT22;1026;51.460;7.252;2023-07-31T13:05:13;18.40;93.70
2042;DHT22;1026;51.460;7.252;2023-07-31T13:07:42;18.40;93.60
2042;DHT22;1026;51.460;7.252;2023-07-31T13:10:19;18.40;93.60
2042;DHT22;1026;51.460;7.252;2023-07-31T13:12:59;18.40;93.60
2042;DHT22;1026;51.460;7.252;2023-07-31T13:15:32;18.40;93.60
2042;DHT22;1026;51.460;7.252;2023-07-31T13:18:05;18.40;93.60
2042;DHT22;1026;51.460;7.252;2023-07-31T13:20:32;18.40;93.50
2042;DHT22;1026;51.460;7.252;2023-07-31T13:22:59;18.40;93.50
2042;DHT22;1026;51.460;7.252;2023-07-31T13:25:32;18.40;93.60
2042;DHT22;1026;51.460;7.252;2023-07-31T13:28:05;18.40;93.90
2042;DHT22;1026;51.460;7.252;2023-07-31T13:30:33;18.50;93.70
2042;DHT22;1026;51.460;7.252;2023-07-31T13:33:06;18.40;94.00
2042;DHT22;1026;51.460;7.252;2023-07-31T13:35:59;18.40;94.20
2042;DHT22;1026;51.460;7.252;2023-07-31T13:38:26;18.40;93.70
2042;DHT22;1026;51.460;7.252;2023-07-31T13:40:59;18.40;94.10
2042;DHT22;1026;51.460;7.252;2023-07-31T13:43:26;18.40;93.60
2042;DHT22;1026;51.460;7.252;2023-07-31T13:45:59;18.40;93.70
2042;DHT22;1026;51.460;7.252;2023-07-31T13:48:35;18.40;93.80
2042;DHT22;1026;51.460;7.252;2023-07-31T13:51:09;18.40;94.00
2042;DHT22;1026;51.460;7.252;2023-07-31T13:53:36;18.50;93.70
2042;DHT22;1026;51.460;7.252;2023-07-31T13:56:03;18.50;93.90
2042;DHT22;1026;51.460;7.252;2023-07-31T13:58:36;18.40;93.60
2042;DHT22;1026;51.460;7.252;2023-07-31T14:01:04;18.50;93.80
2042;DHT22;1026;51.460;7.252;2023-07-31T14:03:38;18.50;93.60
2042;DHT22;1026;51.460;7.252;2023-07-31T14:06:25;18.50;93.90
2042;DHT22;1026;51.460;7.252;2023-07-31T14:08:59;18.50;93.80
2042;DHT22;1026;51.460;7.252;2023-07-31T14:11:38;18.50;93.80
2042;DHT22;1026;51.460;7.252;2023-07-31T14:14:12;18.50;93.70
2042;DHT22;1026;51.460;7.252;2023-07-31T14:16:39;18.50;93.90
2042;DHT22;1026;51.460;7.252;2023-07-31T14:19:13;18.50;93.80
2042;DHT22;1026;51.460;7.252;2023-07-31T14:21:40;18.50;93.90
2042;DHT22;1026;51.460;7.252;2023-07-31T14:24:26;18.50;93.90
2042;DHT22;1026;51.460;7.252;2023-07-31T14:26:54;18.50;93.80
2042;DHT22;1026;51.460;7.252;2023-07-31T14:29:27;18.50;94.00
2042;DHT22;1026;51.460;7.252;2023-07-31T14:31:54;18.60;94.30
2042;DHT22;1026;51.460;7.252;2023-07-31T14:34:22;18.60;94.20
2042;DHT22;1026;51.460;7.252;2023-07-31T14:36:56;18.60;94.40
2042;DHT22;1026;51.460;7.252;2023-07-31T14:39:23;18.60;94.20
2042;DHT22;1026;51.460;7.252;2023-07-31T14:41:56;18.60;94.30
2042;DHT22;1026;51.460;7.252;2023-07-31T14:44:23;18.60;94.50
2042;DHT22;1026;51.460;7.252;2023-07-31T14:46:57;18.60;94.50
2042;DHT22;1026;51.460;7.252;2023-07-31T14:49:24;18.70;94.20
2042;DHT22;1026;51.460;7.252;2023-07-31T14:51:51;18.70;94.30
2042;DHT22;1026;51.460;7.252;2023-07-31T14:54:25;18.60;94.20
2042;DHT22;1026;51.460;7.252;2023-07-31T14:56:52;18.70;94.30
2042;DHT22;1026;51.460;7.252;2023-07-31T14:59:19;18.60;94.00
2042;DHT22;1026;51.460;7.252;2023-07-31T15:01:53;18.70;93.90
2042;DHT22;1026;51.460;7.252;2023-07-31T15:04:20;18.70;93.70
2042;DHT22;1026;51.460;7.252;2023-07-31T15:06:49;18.60;93.60
2042;DHT22;1026;51.460;7.252;2023-07-31T15:09:23;18.60;93.70
2042;DHT22;1026;51.460;7.252;2023-07-31T15:12:02;18.70;93.80
2042;DHT22;1026;51.460;7.252;2023-07-31T15:14:37;18.60;93.70
2042;DHT22;1026;51.460;7.252;2023-07-31T15:17:04;18.70;93.60
2042;DHT22;1026;51.460;7.252;2023-07-31T15:19:31;18.70;93.80
2042;DHT22;1026;51.460;7.252;2023-07-31T15:22:08;18.70;93.70
2042;DHT22;1026;51.460;7.252;2023-07-31T15:24:35;18.70;94.10
2042;DHT22;1026;51.460;7.252;2023-07-31T15:27:08;18.70;93.90
2042;DHT22;1026;51.460;7.252;2023-07-31T15:29:35;18.70;93.90
2042;DHT22;1026;51.460;7.252;2023-07-31T15:32:05;18.70;93.90
2042;DHT22;1026;51.460;7.252;2023-07-31T15:34:39;18.70;94.20
2042;DHT22;1026;51.460;7.252;2023-07-31T15:37:06;18.70;94.10
2042;DHT22;1026;51.460;7.252;2023-07-31T15:39:40;18.70;94.00
2042;DHT22;1026;51.460;7.252;2023-07-31T15:42:07;18.70;93.90
2042;DHT22;1026;51.460;7.252;2023-07-31T15:44:41;18.70;94.10
2042;DHT22;1026;51.460;7.252;2023-07-31T15:47:08;18.70;94.00
2042;DHT22;1026;51.460;7.252;2023-07-31T15:49:42;18.70;94.00
2042;DHT22;1026;51.460;7.252;2023-07-31T15:52:09;18.70;93.90
2042;DHT22;1026;51.460;7.252;2023-07-31T15:54:36;18.70;94.00
2042;DHT22;1026;51.460;7.252;2023-07-31T15:57:10;18.70;94.00
2042;DHT22;1026;51.460;7.252;2023-07-31T15:59:44;18.70;93.80
2042;DHT22;1026;51.460;7.252;2023-07-31T16:02:18;18.70;94.00
2042;DHT22;1026;51.460;7.252;2023-07-31T16:04:45;18.70;93.80
2042;DHT22;1026;51.460;7.252;2023-07-31T16:07:18;18.70;94.00
2042;DHT22;1026;51.460;7.252;2023-07-31T16:09:47;18.70;93.90
2042;DHT22;1026;51.460;7.252;2023-07-31T16:12:20;18.70;94.20
2042;DHT22;1026;51.460;7.252;2023-07-31T16:14:54;18.70;94.20
2042;DHT22;1026;51.460;7.252;2023-07-31T16:17:28;18.70;94.00
2042;DHT22;1026;51.460;7.252;2023-07-31T16:19:55;18.70;93.80
2042;DHT22;1026;51.460;7.252;2023-07-31T16:22:22;18.70;94.10
2042;DHT22;1026;51.460;7.252;2023-07-31T16:24:56;18.70;94.00
2042;DHT22;1026;51.460;7.252;2023-07-31T16:27:23;18.70;94.10
2042;DHT22;1026;51.460;7.252;2023-07-31T16:29:58;18.70;94.00
2042;DHT22;1026;51.460;7.252;2023-07-31T16:32:27;18.70;94.00